createdAt,value
2022-12-01T00:01:02.554Z,79.82
2022-12-01T00:06:12.925Z,79.79
2022-12-01T00:11:16.418Z,79.86
2022-12-01T00:16:20.016Z,79.35
2022-12-01T00:21:24.969Z,79.25
2022-12-01T00:26:28.586Z,79.06
2022-12-01T00:31:31.883Z,79.44
2022-12-01T00:36:36.212Z,79.60
2022-12-01T00:41:40.115Z,79.64
2022-12-01T00:46:43.761Z,79.57
2022-12-01T00:51:47.825Z,79.34
2022-12-01T00:56:51.501Z,79.63
2022-12-01T01:01:55.307Z,79.89
2022-12-01T01:06:59.380Z,79.83
2022-12-01T01:12:03.037Z,79.91
2022-12-01T01:17:06.423Z,79.65
2022-12-01T01:22:10.112Z,79.73
2022-12-01T01:27:16.382Z,79.22
2022-12-01T01:32:19.561Z,79.45
2022-12-01T01:37:23.170Z,79.50
2022-12-01T01:42:26.620Z,79.64
2022-12-01T01:47:41.132Z,79.63
2022-12-01T01:52:52.425Z,79.31
2022-12-01T01:57:56.985Z,79.34
2022-12-01T02:03:01.558Z,79.26
2022-12-01T02:08:12.829Z,79.29
2022-12-01T02:13:19.394Z,79.62
2022-12-01T02:19:18.419Z,79.44
2022-12-01T02:24:50.754Z,79.45
2022-12-01T02:30:19.584Z,79.37
2022-12-01T02:35:50.824Z,79.62
2022-12-01T02:41:20.482Z,79.03
2022-12-01T02:46:30.868Z,79.29
2022-12-01T02:51:36.910Z,78.83
2022-12-01T02:56:40.215Z,79.05
2022-12-01T03:01:54.703Z,79.14
2022-12-01T03:07:33.777Z,79.07
2022-12-01T03:13:03.984Z,78.72
2022-12-01T03:18:19.704Z,78.72
2022-12-01T03:23:28.915Z,78.95
2022-12-01T03:28:38.056Z,78.92
2022-12-01T03:33:49.491Z,78.68
2022-12-01T03:38:57.469Z,78.75
2022-12-01T03:44:11.454Z,78.79
2022-12-01T03:49:18.643Z,78.70
2022-12-01T03:54:47.685Z,79.03
2022-12-01T03:59:52.150Z,78.83
2022-12-01T04:04:55.369Z,78.82
2022-12-01T04:09:58.768Z,78.55
2022-12-01T04:15:06.757Z,78.92
2022-12-01T04:20:11.009Z,78.82
2022-12-01T04:25:14.500Z,79.09
2022-12-01T04:30:18.703Z,79.05
2022-12-01T04:35:22.696Z,79.03
2022-12-01T04:40:26.370Z,79.14
2022-12-01T04:45:29.864Z,79.31
2022-12-01T04:50:33.511Z,79.38
2022-12-01T04:55:39.758Z,79.28
2022-12-01T05:00:43.715Z,79.59
2022-12-01T05:05:47.705Z,79.82
2022-12-01T05:10:56.830Z,79.64
2022-12-01T05:16:08.422Z,79.75
2022-12-01T05:21:11.898Z,79.75
2022-12-01T05:26:15.688Z,79.83
2022-12-01T05:31:19.094Z,80.06
2022-12-01T05:36:22.359Z,80.24
2022-12-01T05:41:25.491Z,80.29
2022-12-01T05:46:28.817Z,80.45
2022-12-01T05:51:32.442Z,80.74
2022-12-01T05:56:36.194Z,80.69
2022-12-01T06:01:40.184Z,81.07
2022-12-01T06:06:43.690Z,80.97
2022-12-01T06:11:52.262Z,80.92
2022-12-01T06:16:56.496Z,80.83
2022-12-01T06:21:59.929Z,81.08
2022-12-01T06:27:03.699Z,81.59
2022-12-01T06:32:08.661Z,81.47
2022-12-01T06:37:16.580Z,81.34
2022-12-01T06:42:21.545Z,81.49
2022-12-01T06:47:27.274Z,81.45
2022-12-01T06:52:32.645Z,81.55
2022-12-01T06:57:39.859Z,81.72
2022-12-01T07:02:44.331Z,81.73
2022-12-01T07:07:53.778Z,81.53
2022-12-01T07:13:01.360Z,81.61
2022-12-01T07:18:06.090Z,81.54
2022-12-01T07:23:11.453Z,81.66
2022-12-01T07:28:17.045Z,81.58
2022-12-01T07:33:21.856Z,81.51
2022-12-01T07:38:28.634Z,81.29
2022-12-01T07:43:33.535Z,81.53
2022-12-01T07:48:39.102Z,81.71
2022-12-01T07:53:46.161Z,81.41
2022-12-01T07:58:50.138Z,81.36
2022-12-01T08:03:57.450Z,81.37
2022-12-01T08:09:01.563Z,81.18
2022-12-01T08:14:05.682Z,80.99
2022-12-01T08:19:11.261Z,80.82
2022-12-01T08:24:15.750Z,81.03
2022-12-01T08:29:20.470Z,80.98
2022-12-01T08:34:24.006Z,81.01
2022-12-01T08:39:28.747Z,80.78
2022-12-01T08:44:31.955Z,80.55
2022-12-01T08:49:35.487Z,80.59
2022-12-01T08:54:38.722Z,80.41
2022-12-01T08:59:46.030Z,80.23
2022-12-01T09:04:53.083Z,80.26
2022-12-01T09:09:57.510Z,80.03
2022-12-01T09:15:01.311Z,79.97
2022-12-01T09:20:05.587Z,79.60
2022-12-01T09:25:15.363Z,79.81
2022-12-01T09:30:20.422Z,79.76
2022-12-01T09:35:25.255Z,79.73
2022-12-01T09:40:34.954Z,79.68
2022-12-01T09:45:45.105Z,79.56
2022-12-01T09:50:49.066Z,79.40
2022-12-01T09:56:03.080Z,78.96
2022-12-01T10:01:19.814Z,78.68
2022-12-01T10:06:59.652Z,78.47
2022-12-01T10:12:28.296Z,78.23
2022-12-01T10:17:47.341Z,78.32
2022-12-01T10:23:02.434Z,78.22
2022-12-01T10:28:32.158Z,78.33
2022-12-01T10:33:46.184Z,78.28
2022-12-01T10:38:51.153Z,78.07
2022-12-01T10:44:01.818Z,77.83
2022-12-01T10:49:18.522Z,78.36
2022-12-01T10:54:31.648Z,78.11
2022-12-01T10:59:51.383Z,78.10
2022-12-01T11:05:01.437Z,77.77
2022-12-01T11:10:24.972Z,77.71
2022-12-01T11:15:40.185Z,77.67
2022-12-01T11:20:44.319Z,77.82
2022-12-01T11:26:12.267Z,77.61
2022-12-01T11:31:17.823Z,77.74
2022-12-01T11:36:33.009Z,77.56
2022-12-01T11:41:41.322Z,77.51
2022-12-01T11:46:55.771Z,77.81
2022-12-01T11:52:31.779Z,77.74
2022-12-01T11:57:36.644Z,77.85
2022-12-01T12:03:09.923Z,77.89
2022-12-01T12:08:34.801Z,77.71
2022-12-01T12:13:46.047Z,77.94
2022-12-01T12:19:18.442Z,78.04
2022-12-01T12:24:41.904Z,77.84
2022-12-01T12:30:14.377Z,77.90
2022-12-01T12:35:30.118Z,78.29
2022-12-01T12:40:42.936Z,78.33
2022-12-01T12:46:04.272Z,78.47
2022-12-01T12:51:20.877Z,78.60
2022-12-01T12:56:27.146Z,78.86
2022-12-01T13:01:40.644Z,78.79
2022-12-01T13:06:53.291Z,79.02
2022-12-01T13:12:27.838Z,79.10
2022-12-01T13:17:41.004Z,78.99
2022-12-01T13:22:47.600Z,79.11
2022-12-01T13:27:53.641Z,79.15
2022-12-01T13:33:05.636Z,78.99
2022-12-01T13:38:34.249Z,79.07
2022-12-01T13:43:45.488Z,79.13
2022-12-01T13:48:49.650Z,79.22
2022-12-01T13:54:25.890Z,79.38
2022-12-01T14:00:00.440Z,78.87
2022-12-01T14:05:23.495Z,78.96
2022-12-01T14:10:31.945Z,79.01
2022-12-01T14:15:43.976Z,79.06
2022-12-01T14:20:49.738Z,79.21
2022-12-01T14:26:21.352Z,79.44
2022-12-01T14:31:47.360Z,79.38
2022-12-01T14:36:56.950Z,79.29
2022-12-01T14:42:04.471Z,79.08
2022-12-01T14:47:12.383Z,78.93
2022-12-01T14:52:24.338Z,79.36
2022-12-01T14:57:45.006Z,79.52
2022-12-01T15:02:59.417Z,79.26
2022-12-01T15:13:54.887Z,78.58
2022-12-01T15:19:00.066Z,78.30
2022-12-01T15:24:24.580Z,78.41
2022-12-01T15:29:45.860Z,78.59
2022-12-01T15:34:53.461Z,78.95
2022-12-01T15:40:47.743Z,79.06
2022-12-01T15:46:02.350Z,79.40
2022-12-01T15:51:09.199Z,79.45
2022-12-01T15:56:13.291Z,79.23
2022-12-01T16:01:21.518Z,79.20
2022-12-01T16:06:29.083Z,79.23
2022-12-01T16:12:08.303Z,79.65
2022-12-01T16:17:11.987Z,79.40
2022-12-01T16:22:21.713Z,79.31
2022-12-01T16:27:28.657Z,79.67
2022-12-01T16:32:41.590Z,79.74
2022-12-01T16:37:45.604Z,79.59
2022-12-01T16:42:50.426Z,80.00
2022-12-01T16:47:55.145Z,80.22
2022-12-01T16:52:58.466Z,79.95
2022-12-01T16:58:02.201Z,80.09
2022-12-01T17:03:08.278Z,80.13
2022-12-01T17:08:12.825Z,80.16
2022-12-01T17:13:18.712Z,80.15
2022-12-01T17:18:24.082Z,80.48
2022-12-01T17:23:29.204Z,80.08
2022-12-01T17:28:34.198Z,79.92
2022-12-01T17:33:39.171Z,79.77
2022-12-01T17:38:52.403Z,79.84
2022-12-01T17:43:56.520Z,79.59
2022-12-01T17:48:59.934Z,79.30
2022-12-01T17:54:05.074Z,79.09
2022-12-01T17:59:09.105Z,79.52
2022-12-01T18:04:12.910Z,79.44
2022-12-01T18:09:17.439Z,79.47
2022-12-01T18:14:21.739Z,79.29
2022-12-01T18:19:26.698Z,79.00
2022-12-01T18:24:30.629Z,79.00
2022-12-01T18:29:35.888Z,79.09
2022-12-01T18:34:40.241Z,79.14
2022-12-01T18:39:45.225Z,79.18
2022-12-01T18:44:50.222Z,79.27
2022-12-01T18:49:55.666Z,79.35
2022-12-01T18:55:00.514Z,79.07
2022-12-01T19:00:06.829Z,78.82
2022-12-01T19:05:11.087Z,79.16
2022-12-01T19:10:16.665Z,79.17
2022-12-01T19:15:21.715Z,79.08
2022-12-01T19:20:26.283Z,78.90
2022-12-01T19:25:30.624Z,79.11
2022-12-01T19:30:35.839Z,79.18
2022-12-01T19:35:40.781Z,79.27
2022-12-01T19:40:45.146Z,78.95
2022-12-01T19:45:49.707Z,79.03
2022-12-01T19:50:53.807Z,79.01
2022-12-01T19:56:04.135Z,78.92
2022-12-01T20:01:19.237Z,78.88
2022-12-01T20:06:29.005Z,78.82
2022-12-01T20:11:36.972Z,78.78
2022-12-01T20:16:41.108Z,78.60
2022-12-01T20:21:45.740Z,78.77
2022-12-01T20:30:42.435Z,78.45
2022-12-01T20:35:46.837Z,78.64
2022-12-01T20:40:53.391Z,79.12
2022-12-01T20:45:58.840Z,78.63
2022-12-01T20:51:06.033Z,78.64
2022-12-01T20:56:12.608Z,78.83
2022-12-01T21:01:18.679Z,78.74
2022-12-01T21:06:23.250Z,78.94
2022-12-01T21:11:49.699Z,78.38
2022-12-01T21:16:59.008Z,78.43
2022-12-01T21:22:11.491Z,78.18
2022-12-01T21:27:18.838Z,78.22
2022-12-01T21:32:31.071Z,78.09
2022-12-01T21:37:35.918Z,78.29
2022-12-01T21:42:39.914Z,78.36
2022-12-01T21:47:43.740Z,78.50
2022-12-01T21:52:48.309Z,78.04
2022-12-01T21:57:53.521Z,77.93
2022-12-01T22:03:25.108Z,78.20
2022-12-01T22:08:36.339Z,77.93
2022-12-01T22:14:36.303Z,77.48
2022-12-01T22:19:44.962Z,77.84
2022-12-01T22:24:52.944Z,77.84
2022-12-01T22:30:20.836Z,77.55
2022-12-01T22:35:43.011Z,77.64
2022-12-01T22:40:49.856Z,77.86
2022-12-01T22:46:01.290Z,77.49
2022-12-01T22:51:17.263Z,77.48
2022-12-01T22:56:36.960Z,77.29
2022-12-01T23:01:48.594Z,77.33
2022-12-01T23:06:54.872Z,77.20
2022-12-01T23:12:21.438Z,77.33
2022-12-01T23:17:28.896Z,77.40
2022-12-01T23:22:32.698Z,77.49
2022-12-01T23:27:38.452Z,77.74
2022-12-01T23:32:43.431Z,77.61
2022-12-01T23:37:48.382Z,77.46
2022-12-01T23:42:52.293Z,77.21
2022-12-01T23:47:57.099Z,76.91
2022-12-01T23:53:05.005Z,77.35
2022-12-01T23:58:16.181Z,77.20
